sensor_id;sensor_type;location;lat;lon;timestamp;temperature;humidity
24085;DHT22;12268;52.110;5.548;2023-07-13T00:02:16;20.30;99.90
24085;DHT22;12268;52.110;5.548;2023-07-13T00:04:42;20.20;99.90
24085;DHT22;12268;52.110;5.548;2023-07-13T00:07:08;20.30;99.90
24085;DHT22;12268;52.110;5.548;2023-07-13T00:09:34;20.30;99.90
24085;DHT22;12268;52.110;5.548;2023-07-13T00:12:01;20.30;99.90
24085;DHT22;12268;52.110;5.548;2023-07-13T00:14:28;20.30;99.90
24085;DHT22;12268;52.110;5.548;2023-07-13T00:16:55;20.10;99.90
24085;DHT22;12268;52.110;5.548;2023-07-13T00:19:21;20.10;99.90
24085;DHT22;12268;52.110;5.548;2023-07-13T00:21:47;20.00;99.90
24085;DHT22;12268;52.110;5.548;2023-07-13T00:24:16;20.00;99.90
24085;DHT22;12268;52.110;5.548;2023-07-13T00:26:48;19.90;99.90
24085;DHT22;12268;52.110;5.548;2023-07-13T00:29:14;19.80;99.90
24085;DHT22;12268;52.110;5.548;2023-07-13T00:31:41;19.60;99.90
24085;DHT22;12268;52.110;5.548;2023-07-13T00:34:07;19.60;99.90
24085;DHT22;12268;52.110;5.548;2023-07-13T00:36:33;19.60;99.90
24085;DHT22;12268;52.110;5.548;2023-07-13T00:38:59;19.40;99.90
24085;DHT22;12268;52.110;5.548;2023-07-13T00:41:25;19.50;99.90
24085;DHT22;12268;52.110;5.548;2023-07-13T00:43:51;19.40;99.90
24085;DHT22;12268;52.110;5.548;2023-07-13T00:46:26;19.50;99.90
24085;DHT22;12268;52.110;5.548;2023-07-13T00:48:53;19.50;99.90
24085;DHT22;12268;52.110;5.548;2023-07-13T00:51:53;19.40;99.90
24085;DHT22;12268;52.110;5.548;2023-07-13T00:54:28;19.30;99.90
24085;DHT22;12268;52.110;5.548;2023-07-13T00:56:59;19.10;99.90
24085;DHT22;12268;52.110;5.548;2023-07-13T00:59:26;19.10;99.90
24085;DHT22;12268;52.110;5.548;2023-07-13T01:01:52;19.00;99.90
24085;DHT22;12268;52.110;5.548;2023-07-13T01:04:18;19.00;99.90
24085;DHT22;12268;52.110;5.548;2023-07-13T01:06:44;18.90;99.90
24085;DHT22;12268;52.110;5.548;2023-07-13T01:09:11;18.90;99.90
24085;DHT22;12268;52.110;5.548;2023-07-13T01:11:37;18.90;99.90
24085;DHT22;12268;52.110;5.548;2023-07-13T01:14:03;18.80;99.90
24085;DHT22;12268;52.110;5.548;2023-07-13T01:16:32;18.70;99.90
24085;DHT22;12268;52.110;5.548;2023-07-13T01:18:59;18.70;99.90
24085;DHT22;12268;52.110;5.548;2023-07-13T01:21:28;18.60;99.90
24085;DHT22;12268;52.110;5.548;2023-07-13T01:23:54;18.50;99.90
24085;DHT22;12268;52.110;5.548;2023-07-13T01:26:21;18.40;99.90
24085;DHT22;12268;52.110;5.548;2023-07-13T01:28:46;18.40;99.90
24085;DHT22;12268;52.110;5.548;2023-07-13T01:31:12;18.30;99.90
24085;DHT22;12268;52.110;5.548;2023-07-13T01:33:40;18.40;99.90
24085;DHT22;12268;52.110;5.548;2023-07-13T01:36:10;18.40;99.90
24085;DHT22;12268;52.110;5.548;2023-07-13T01:38:36;18.50;99.90
24085;DHT22;12268;52.110;5.548;2023-07-13T01:41:02;18.40;99.90
24085;DHT22;12268;52.110;5.548;2023-07-13T01:43:28;18.40;99.90
24085;DHT22;12268;52.110;5.548;2023-07-13T01:45:54;18.40;99.90
24085;DHT22;12268;52.110;5.548;2023-07-13T01:48:20;18.30;99.90
24085;DHT22;12268;52.110;5.548;2023-07-13T01:50:46;18.40;99.90
24085;DHT22;12268;52.110;5.548;2023-07-13T01:53:12;18.40;99.90
24085;DHT22;12268;52.110;5.548;2023-07-13T01:55:38;18.40;99.90
24085;DHT22;12268;52.110;5.548;2023-07-13T01:58:04;18.30;99.90
24085;DHT22;12268;52.110;5.548;2023-07-13T02:00:30;18.40;99.90
24085;DHT22;12268;52.110;5.548;2023-07-13T02:02:56;18.40;99.90
24085;DHT22;12268;52.110;5.548;2023-07-13T02:05:21;18.40;99.90
24085;DHT22;12268;52.110;5.548;2023-07-13T02:07:47;18.30;99.90
24085;DHT22;12268;52.110;5.548;2023-07-13T02:10:14;18.20;99.90
24085;DHT22;12268;52.110;5.548;2023-07-13T02:12:41;18.40;99.90
24085;DHT22;12268;52.110;5.548;2023-07-13T02:15:07;18.40;99.90
24085;DHT22;12268;52.110;5.548;2023-07-13T02:17:34;18.40;99.90
24085;DHT22;12268;52.110;5.548;2023-07-13T02:20:00;18.50;99.90
24085;DHT22;12268;52.110;5.548;2023-07-13T02:22:26;18.50;99.90
24085;DHT22;12268;52.110;5.548;2023-07-13T02:24:51;18.50;99.90
24085;DHT22;12268;52.110;5.548;2023-07-13T02:27:17;18.50;99.90
24085;DHT22;12268;52.110;5.548;2023-07-13T02:29:43;18.50;99.90
24085;DHT22;12268;52.110;5.548;2023-07-13T02:32:09;18.40;99.90
24085;DHT22;12268;52.110;5.548;2023-07-13T02:34:35;18.30;99.90
24085;DHT22;12268;52.110;5.548;2023-07-13T02:37:01;18.40;99.90
24085;DHT22;12268;52.110;5.548;2023-07-13T02:39:26;18.40;99.90
24085;DHT22;12268;52.110;5.548;2023-07-13T02:41:52;18.30;99.90
24085;DHT22;12268;52.110;5.548;2023-07-13T02:44:17;18.20;99.90
24085;DHT22;12268;52.110;5.548;2023-07-13T02:46:43;18.10;99.90
24085;DHT22;12268;52.110;5.548;2023-07-13T02:49:09;18.10;99.90
24085;DHT22;12268;52.110;5.548;2023-07-13T02:51:35;18.00;99.90
24085;DHT22;12268;52.110;5.548;2023-07-13T02:54:03;17.90;99.90
24085;DHT22;12268;52.110;5.548;2023-07-13T02:56:30;17.90;99.90
24085;DHT22;12268;52.110;5.548;2023-07-13T02:58:57;18.00;99.90
24085;DHT22;12268;52.110;5.548;2023-07-13T03:01:23;17.90;99.90
24085;DHT22;12268;52.110;5.548;2023-07-13T03:03:50;17.90;99.90
24085;DHT22;12268;52.110;5.548;2023-07-13T03:06:16;18.00;99.90
24085;DHT22;12268;52.110;5.548;2023-07-13T03:08:42;18.10;99.90
24085;DHT22;12268;52.110;5.548;2023-07-13T03:11:11;18.20;99.90
24085;DHT22;12268;52.110;5.548;2023-07-13T03:13:38;18.10;99.90
24085;DHT22;12268;52.110;5.548;2023-07-13T03:16:05;18.10;99.90
24085;DHT22;12268;52.110;5.548;2023-07-13T03:18:31;18.00;99.90
24085;DHT22;12268;52.110;5.548;2023-07-13T03:20:57;17.90;99.90
24085;DHT22;12268;52.110;5.548;2023-07-13T03:23:23;17.80;99.90
24085;DHT22;12268;52.110;5.548;2023-07-13T03:25:50;17.90;99.90
24085;DHT22;12268;52.110;5.548;2023-07-13T03:28:16;17.90;99.90
24085;DHT22;12268;52.110;5.548;2023-07-13T03:30:42;18.00;99.90
24085;DHT22;12268;52.110;5.548;2023-07-13T03:33:07;18.00;99.90
24085;DHT22;12268;52.110;5.548;2023-07-13T03:35:34;18.00;99.90
24085;DHT22;12268;52.110;5.548;2023-07-13T03:38:01;18.00;99.90
24085;DHT22;12268;52.110;5.548;2023-07-13T03:40:27;18.00;99.90
24085;DHT22;12268;52.110;5.548;2023-07-13T03:42:53;18.00;99.90
24085;DHT22;12268;52.110;5.548;2023-07-13T03:45:19;18.10;99.90
24085;DHT22;12268;52.110;5.548;2023-07-13T03:47:45;18.10;99.90
24085;DHT22;12268;52.110;5.548;2023-07-13T03:50:10;18.00;99.90
24085;DHT22;12268;52.110;5.548;2023-07-13T03:52:36;18.10;99.90
24085;DHT22;12268;52.110;5.548;2023-07-13T03:55:02;18.10;99.90
24085;DHT22;12268;52.110;5.548;2023-07-13T03:57:28;18.10;99.90
24085;DHT22;12268;52.110;5.548;2023-07-13T03:59:54;18.10;99.90
24085;DHT22;12268;52.110;5.548;2023-07-13T04:02:19;18.10;99.90
24085;DHT22;12268;52.110;5.548;2023-07-13T04:04:45;18.00;99.90
24085;DHT22;12268;52.110;5.548;2023-07-13T04:07:11;18.00;99.90
24085;DHT22;12268;52.110;5.548;2023-07-13T04:09:37;18.00;99.90
24085;DHT22;12268;52.110;5.548;2023-07-13T04:12:04;18.00;99.90
24085;DHT22;12268;52.110;5.548;2023-07-13T04:14:30;18.00;99.90
24085;DHT22;12268;52.110;5.548;2023-07-13T04:16:55;18.00;99.90
24085;DHT22;12268;52.110;5.548;2023-07-13T04:19:21;18.00;99.90
24085;DHT22;12268;52.110;5.548;2023-07-13T04:21:47;17.90;99.90
24085;DHT22;12268;52.110;5.548;2023-07-13T04:24:13;18.00;99.90
24085;DHT22;12268;52.110;5.548;2023-07-13T04:26:38;17.90;99.90
24085;DHT22;12268;52.110;5.548;2023-07-13T04:29:06;18.10;99.90
24085;DHT22;12268;52.110;5.548;2023-07-13T04:31:32;18.10;99.90
24085;DHT22;12268;52.110;5.548;2023-07-13T04:33:58;18.20;99.90
24085;DHT22;12268;52.110;5.548;2023-07-13T04:36:25;18.30;99.90
24085;DHT22;12268;52.110;5.548;2023-07-13T04:38:53;18.40;99.90
24085;DHT22;12268;52.110;5.548;2023-07-13T04:41:20;18.30;99.90
24085;DHT22;12268;52.110;5.548;2023-07-13T04:43:46;18.30;99.90
24085;DHT22;12268;52.110;5.548;2023-07-13T04:46:15;18.40;99.90
24085;DHT22;12268;52.110;5.548;2023-07-13T04:48:43;18.40;99.90
24085;DHT22;12268;52.110;5.548;2023-07-13T04:51:08;18.40;99.90
24085;DHT22;12268;52.110;5.548;2023-07-13T04:53:34;18.50;99.90
24085;DHT22;12268;52.110;5.548;2023-07-13T04:56:00;18.40;99.90
24085;DHT22;12268;52.110;5.548;2023-07-13T04:58:28;18.40;99.90
24085;DHT22;12268;52.110;5.548;2023-07-13T05:01:00;18.60;99.90
24085;DHT22;12268;52.110;5.548;2023-07-13T05:03:26;18.70;99.90
24085;DHT22;12268;52.110;5.548;2023-07-13T05:06:00;18.70;99.90
24085;DHT22;12268;52.110;5.548;2023-07-13T05:08:26;18.90;99.90
24085;DHT22;12268;52.110;5.548;2023-07-13T05:10:52;18.90;99.90
24085;DHT22;12268;52.110;5.548;2023-07-13T05:13:18;18.80;99.90
24085;DHT22;12268;52.110;5.548;2023-07-13T05:15:44;18.80;99.90
24085;DHT22;12268;52.110;5.548;2023-07-13T05:18:09;18.70;99.90
24085;DHT22;12268;52.110;5.548;2023-07-13T05:20:35;18.60;99.90
24085;DHT22;12268;52.110;5.548;2023-07-13T05:23:01;18.60;99.90
24085;DHT22;12268;52.110;5.548;2023-07-13T05:25:26;18.70;99.90
24085;DHT22;12268;52.110;5.548;2023-07-13T05:27:52;18.80;99.90
24085;DHT22;12268;52.110;5.548;2023-07-13T05:30:18;18.90;99.90
24085;DHT22;12268;52.110;5.548;2023-07-13T05:32:43;19.10;99.90
24085;DHT22;12268;52.110;5.548;2023-07-13T05:35:09;19.10;99.90
24085;DHT22;12268;52.110;5.548;2023-07-13T05:37:37;19.40;99.90
24085;DHT22;12268;52.110;5.548;2023-07-13T05:40:04;19.30;99.90
24085;DHT22;12268;52.110;5.548;2023-07-13T05:42:30;19.20;99.90
24085;DHT22;12268;52.110;5.548;2023-07-13T05:44:56;19.30;99.90
24085;DHT22;12268;52.110;5.548;2023-07-13T05:47:22;19.40;99.90
24085;DHT22;12268;52.110;5.548;2023-07-13T05:49:48;19.50;99.90
24085;DHT22;12268;52.110;5.548;2023-07-13T05:52:13;19.50;99.90
24085;DHT22;12268;52.110;5.548;2023-07-13T05:54:39;19.50;99.90
24085;DHT22;12268;52.110;5.548;2023-07-13T05:57:05;19.30;99.90
24085;DHT22;12268;52.110;5.548;2023-07-13T05:59:30;19.40;99.90
24085;DHT22;12268;52.110;5.548;2023-07-13T06:01:56;19.40;99.90
24085;DHT22;12268;52.110;5.548;2023-07-13T06:04:22;19.40;99.90
24085;DHT22;12268;52.110;5.548;2023-07-13T06:06:47;19.50;99.90
24085;DHT22;12268;52.110;5.548;2023-07-13T06:09:13;19.50;99.90
24085;DHT22;12268;52.110;5.548;2023-07-13T06:11:39;19.50;99.90
24085;DHT22;12268;52.110;5.548;2023-07-13T06:14:04;19.80;99.90
24085;DHT22;12268;52.110;5.548;2023-07-13T06:16:30;19.80;99.90
24085;DHT22;12268;52.110;5.548;2023-07-13T06:18:56;19.90;99.90
24085;DHT22;12268;52.110;5.548;2023-07-13T06:21:22;20.00;99.90
24085;DHT22;12268;52.110;5.548;2023-07-13T06:23:50;20.20;99.90
24085;DHT22;12268;52.110;5.548;2023-07-13T06:26:17;20.20;99.90
24085;DHT22;12268;52.110;5.548;2023-07-13T06:28:44;20.30;99.90
24085;DHT22;12268;52.110;5.548;2023-07-13T06:31:11;20.30;99.90
24085;DHT22;12268;52.110;5.548;2023-07-13T06:33:38;20.30;99.90
24085;DHT22;12268;52.110;5.548;2023-07-13T06:36:04;20.30;99.90
24085;DHT22;12268;52.110;5.548;2023-07-13T06:38:31;20.50;99.90
24085;DHT22;12268;52.110;5.548;2023-07-13T06:40:57;20.60;99.90
24085;DHT22;12268;52.110;5.548;2023-07-13T06:43:23;20.60;99.90
24085;DHT22;12268;52.110;5.548;2023-07-13T06:45:50;20.30;99.90
24085;DHT22;12268;52.110;5.548;2023-07-13T06:48:18;20.20;99.90
24085;DHT22;12268;52.110;5.548;2023-07-13T06:50:44;20.00;99.90
24085;DHT22;12268;52.110;5.548;2023-07-13T06:53:10;19.90;99.90
24085;DHT22;12268;52.110;5.548;2023-07-13T06:55:36;19.80;99.90
24085;DHT22;12268;52.110;5.548;2023-07-13T06:58:02;20.00;99.90
24085;DHT22;12268;52.110;5.548;2023-07-13T07:00:28;20.30;99.90
24085;DHT22;12268;52.110;5.548;2023-07-13T07:02:53;20.40;99.90
24085;DHT22;12268;52.110;5.548;2023-07-13T07:05:19;20.40;99.90
24085;DHT22;12268;52.110;5.548;2023-07-13T07:07:48;20.40;99.90
24085;DHT22;12268;52.110;5.548;2023-07-13T07:10:13;20.40;99.90
24085;DHT22;12268;52.110;5.548;2023-07-13T07:12:39;20.60;99.90
24085;DHT22;12268;52.110;5.548;2023-07-13T07:15:05;20.60;99.90
24085;DHT22;12268;52.110;5.548;2023-07-13T07:17:31;20.80;99.90
24085;DHT22;12268;52.110;5.548;2023-07-13T07:19:56;20.90;99.90
24085;DHT22;12268;52.110;5.548;2023-07-13T07:22:22;20.80;99.90
24085;DHT22;12268;52.110;5.548;2023-07-13T07:24:48;20.70;99.90
24085;DHT22;12268;52.110;5.548;2023-07-13T07:27:13;20.80;99.90
24085;DHT22;12268;52.110;5.548;2023-07-13T07:29:39;21.00;99.90
24085;DHT22;12268;52.110;5.548;2023-07-13T07:32:05;21.20;99.90
24085;DHT22;12268;52.110;5.548;2023-07-13T07:34:31;21.50;99.90
24085;DHT22;12268;52.110;5.548;2023-07-13T07:37:00;21.70;99.90
24085;DHT22;12268;52.110;5.548;2023-07-13T07:39:26;21.70;99.90
24085;DHT22;12268;52.110;5.548;2023-07-13T07:41:52;21.60;99.90
24085;DHT22;12268;52.110;5.548;2023-07-13T07:44:18;21.30;99.90
24085;DHT22;12268;52.110;5.548;2023-07-13T07:46:44;21.30;99.90
24085;DHT22;12268;52.110;5.548;2023-07-13T07:49:09;21.40;99.90
24085;DHT22;12268;52.110;5.548;2023-07-13T07:51:36;21.50;99.90
24085;DHT22;12268;52.110;5.548;2023-07-13T07:54:02;21.80;99.90
24085;DHT22;12268;52.110;5.548;2023-07-13T07:56:28;22.10;99.90
24085;DHT22;12268;52.110;5.548;2023-07-13T07:58:54;22.00;99.90
24085;DHT22;12268;52.110;5.548;2023-07-13T08:01:19;21.80;99.90
24085;DHT22;12268;52.110;5.548;2023-07-13T08:03:45;21.90;99.90
24085;DHT22;12268;52.110;5.548;2023-07-13T08:06:10;22.30;99.90
24085;DHT22;12268;52.110;5.548;2023-07-13T08:08:36;22.50;99.90
24085;DHT22;12268;52.110;5.548;2023-07-13T08:11:03;22.40;99.90
24085;DHT22;12268;52.110;5.548;2023-07-13T08:13:29;22.20;99.90
24085;DHT22;12268;52.110;5.548;2023-07-13T08:15:55;22.00;99.90
24085;DHT22;12268;52.110;5.548;2023-07-13T08:18:20;22.10;99.90
24085;DHT22;12268;52.110;5.548;2023-07-13T08:20:46;22.40;99.90
24085;DHT22;12268;52.110;5.548;2023-07-13T08:23:12;22.60;99.90
24085;DHT22;12268;52.110;5.548;2023-07-13T08:25:37;22.70;99.90
24085;DHT22;12268;52.110;5.548;2023-07-13T08:28:04;23.20;99.90
24085;DHT22;12268;52.110;5.548;2023-07-13T08:30:30;23.40;99.90
24085;DHT22;12268;52.110;5.548;2023-07-13T08:32:56;23.50;99.90
24085;DHT22;12268;52.110;5.548;2023-07-13T08:35:22;24.10;99.90
24085;DHT22;12268;52.110;5.548;2023-07-13T08:37:48;24.80;99.90
24085;DHT22;12268;52.110;5.548;2023-07-13T08:40:13;25.30;99.90
24085;DHT22;12268;52.110;5.548;2023-07-13T08:42:44;25.70;99.90
24085;DHT22;12268;52.110;5.548;2023-07-13T08:47:55;24.90;99.90
24085;DHT22;12268;52.110;5.548;2023-07-13T08:50:27;24.50;99.90
24085;DHT22;12268;52.110;5.548;2023-07-13T08:52:55;23.80;99.90
24085;DHT22;12268;52.110;5.548;2023-07-13T08:55:25;23.30;99.90
24085;DHT22;12268;52.110;5.548;2023-07-13T08:58:00;23.10;99.90
24085;DHT22;12268;52.110;5.548;2023-07-13T09:03:31;23.20;99.90
24085;DHT22;12268;52.110;5.548;2023-07-13T09:06:02;23.00;99.90
24085;DHT22;12268;52.110;5.548;2023-07-13T09:14:47;22.00;99.90
24085;DHT22;12268;52.110;5.548;2023-07-13T09:17:27;21.80;99.90
24085;DHT22;12268;52.110;5.548;2023-07-13T09:22:46;21.50;99.90
24085;DHT22;12268;52.110;5.548;2023-07-13T09:25:42;21.40;99.90
24085;DHT22;12268;52.110;5.548;2023-07-13T09:28:19;21.50;99.90
24085;DHT22;12268;52.110;5.548;2023-07-13T09:33:21;22.00;99.90
24085;DHT22;12268;52.110;5.548;2023-07-13T09:35:46;22.10;99.90
24085;DHT22;12268;52.110;5.548;2023-07-13T09:38:15;22.10;99.90
24085;DHT22;12268;52.110;5.548;2023-07-13T09:43:27;23.00;99.90
24085;DHT22;12268;52.110;5.548;2023-07-13T09:45:55;24.40;99.90
24085;DHT22;12268;52.110;5.548;2023-07-13T09:48:21;24.50;99.90
24085;DHT22;12268;52.110;5.548;2023-07-13T09:50:47;24.50;99.90
24085;DHT22;12268;52.110;5.548;2023-07-13T09:53:15;24.20;99.90
24085;DHT22;12268;52.110;5.548;2023-07-13T09:55:43;24.30;99.90
24085;DHT22;12268;52.110;5.548;2023-07-13T09:58:20;24.60;99.90
24085;DHT22;12268;52.110;5.548;2023-07-13T10:01:03;24.90;99.90
24085;DHT22;12268;52.110;5.548;2023-07-13T10:03:35;24.80;99.90
24085;DHT22;12268;52.110;5.548;2023-07-13T10:06:16;24.30;99.90
24085;DHT22;12268;52.110;5.548;2023-07-13T10:08:44;23.70;99.90
24085;DHT22;12268;52.110;5.548;2023-07-13T10:11:17;23.50;99.90
24085;DHT22;12268;52.110;5.548;2023-07-13T10:13:48;23.00;99.90
24085;DHT22;12268;52.110;5.548;2023-07-13T10:16:16;22.40;99.90
24085;DHT22;12268;52.110;5.548;2023-07-13T10:19:06;21.90;99.90
24085;DHT22;12268;52.110;5.548;2023-07-13T10:21:39;21.90;99.90
24085;DHT22;12268;52.110;5.548;2023-07-13T10:24:17;22.30;99.90
24085;DHT22;12268;52.110;5.548;2023-07-13T10:26:52;22.50;99.90
24085;DHT22;12268;52.110;5.548;2023-07-13T10:29:20;22.90;99.90
24085;DHT22;12268;52.110;5.548;2023-07-13T10:31:47;23.10;99.90
24085;DHT22;12268;52.110;5.548;2023-07-13T10:34:13;22.70;99.90
24085;DHT22;12268;52.110;5.548;2023-07-13T10:36:45;23.00;99.90
24085;DHT22;12268;52.110;5.548;2023-07-13T10:39:20;24.80;99.90
24085;DHT22;12268;52.110;5.548;2023-07-13T10:41:53;27.20;99.90
24085;DHT22;12268;52.110;5.548;2023-07-13T10:44:26;28.60;99.90
24085;DHT22;12268;52.110;5.548;2023-07-13T10:46:59;30.30;99.90
24085;DHT22;12268;52.110;5.548;2023-07-13T10:49:28;31.30;99.90
24085;DHT22;12268;52.110;5.548;2023-07-13T10:51:54;30.60;99.90
24085;DHT22;12268;52.110;5.548;2023-07-13T10:54:33;29.00;99.90
24085;DHT22;12268;52.110;5.548;2023-07-13T10:57:18;28.00;99.90
24085;DHT22;12268;52.110;5.548;2023-07-13T11:02:28;25.50;99.90
24085;DHT22;12268;52.110;5.548;2023-07-13T11:04:55;25.00;99.90
24085;DHT22;12268;52.110;5.548;2023-07-13T11:09:56;25.50;99.90
24085;DHT22;12268;52.110;5.548;2023-07-13T11:22:49;32.40;99.90
24085;DHT22;12268;52.110;5.548;2023-07-13T11:25:28;33.20;99.30
24085;DHT22;12268;52.110;5.548;2023-07-13T11:30:43;33.20;94.30
24085;DHT22;12268;52.110;5.548;2023-07-13T11:33:24;31.70;97.00
24085;DHT22;12268;52.110;5.548;2023-07-13T11:38:37;31.70;98.40
24085;DHT22;12268;52.110;5.548;2023-07-13T11:41:26;32.00;97.90
24085;DHT22;12268;52.110;5.548;2023-07-13T11:44:06;31.80;98.30
24085;DHT22;12268;52.110;5.548;2023-07-13T11:46:33;33.50;97.10
24085;DHT22;12268;52.110;5.548;2023-07-13T11:48:58;34.10;95.60
24085;DHT22;12268;52.110;5.548;2023-07-13T11:51:32;34.70;95.30
24085;DHT22;12268;52.110;5.548;2023-07-13T11:54:48;33.80;94.40
24085;DHT22;12268;52.110;5.548;2023-07-13T11:56:48;32.10;96.60
24085;DHT22;12268;52.110;5.548;2023-07-13T11:59:15;28.70;99.90
24085;DHT22;12268;52.110;5.548;2023-07-13T12:01:49;27.00;99.90
24085;DHT22;12268;52.110;5.548;2023-07-13T12:07:08;25.00;99.90
24085;DHT22;12268;52.110;5.548;2023-07-13T12:09:39;23.40;99.90
24085;DHT22;12268;52.110;5.548;2023-07-13T12:12:13;22.40;99.90
24085;DHT22;12268;52.110;5.548;2023-07-13T12:14:40;22.00;99.90
24085;DHT22;12268;52.110;5.548;2023-07-13T12:17:24;21.60;99.90
24085;DHT22;12268;52.110;5.548;2023-07-13T12:19:53;21.60;99.90
24085;DHT22;12268;52.110;5.548;2023-07-13T12:22:20;21.50;99.90
24085;DHT22;12268;52.110;5.548;2023-07-13T12:24:46;21.70;99.90
24085;DHT22;12268;52.110;5.548;2023-07-13T12:27:21;22.00;99.90
24085;DHT22;12268;52.110;5.548;2023-07-13T12:30:06;22.60;99.90
24085;DHT22;12268;52.110;5.548;2023-07-13T12:32:41;23.60;99.90
24085;DHT22;12268;52.110;5.548;2023-07-13T12:35:16;25.90;99.90
24085;DHT22;12268;52.110;5.548;2023-07-13T12:37:43;28.80;99.90
24085;DHT22;12268;52.110;5.548;2023-07-13T12:40:16;31.80;99.90
24085;DHT22;12268;52.110;5.548;2023-07-13T12:42:49;33.50;99.90
24085;DHT22;12268;52.110;5.548;2023-07-13T12:45:19;33.30;99.90
24085;DHT22;12268;52.110;5.548;2023-07-13T12:47:49;31.50;99.90
24085;DHT22;12268;52.110;5.548;2023-07-13T12:50:18;30.30;99.90
24085;DHT22;12268;52.110;5.548;2023-07-13T12:52:49;29.80;99.90
24085;DHT22;12268;52.110;5.548;2023-07-13T12:55:18;29.80;99.90
24085;DHT22;12268;52.110;5.548;2023-07-13T12:58:04;28.80;99.90
24085;DHT22;12268;52.110;5.548;2023-07-13T13:00:32;29.60;99.90
24085;DHT22;12268;52.110;5.548;2023-07-13T13:08:52;33.90;99.90
24085;DHT22;12268;52.110;5.548;2023-07-13T13:11:19;32.90;99.90
24085;DHT22;12268;52.110;5.548;2023-07-13T13:13:45;32.00;99.90
24085;DHT22;12268;52.110;5.548;2023-07-13T13:16:22;31.50;99.90
24085;DHT22;12268;52.110;5.548;2023-07-13T13:18:52;31.80;99.90
24085;DHT22;12268;52.110;5.548;2023-07-13T13:21:18;32.00;99.90
24085;DHT22;12268;52.110;5.548;2023-07-13T13:23:45;32.50;99.90
24085;DHT22;12268;52.110;5.548;2023-07-13T13:26:15;33.10;99.90
24085;DHT22;12268;52.110;5.548;2023-07-13T13:28:44;33.60;99.90
24085;DHT22;12268;52.110;5.548;2023-07-13T13:31:11;33.20;99.50
24085;DHT22;12268;52.110;5.548;2023-07-13T13:33:44;33.30;99.90
24085;DHT22;12268;52.110;5.548;2023-07-13T13:36:19;33.00;99.90
24085;DHT22;12268;52.110;5.548;2023-07-13T13:38:45;32.70;99.90
24085;DHT22;12268;52.110;5.548;2023-07-13T13:41:13;32.50;99.90
24085;DHT22;12268;52.110;5.548;2023-07-13T13:43:42;32.50;99.90
24085;DHT22;12268;52.110;5.548;2023-07-13T13:46:15;32.70;99.90
24085;DHT22;12268;52.110;5.548;2023-07-13T13:48:42;32.30;99.90
24085;DHT22;12268;52.110;5.548;2023-07-13T13:51:18;32.10;99.90
24085;DHT22;12268;52.110;5.548;2023-07-13T13:53:46;31.80;99.50
24085;DHT22;12268;52.110;5.548;2023-07-13T13:56:12;31.10;99.90
24085;DHT22;12268;52.110;5.548;2023-07-13T13:58:39;30.60;99.80
24085;DHT22;12268;52.110;5.548;2023-07-13T14:01:09;30.50;99.90
24085;DHT22;12268;52.110;5.548;2023-07-13T14:03:37;30.60;99.90
24085;DHT22;12268;52.110;5.548;2023-07-13T14:06:03;30.70;99.90
24085;DHT22;12268;52.110;5.548;2023-07-13T14:08:29;31.00;99.90
24085;DHT22;12268;52.110;5.548;2023-07-13T14:10:56;31.10;99.90
24085;DHT22;12268;52.110;5.548;2023-07-13T14:13:35;30.60;98.30
24085;DHT22;12268;52.110;5.548;2023-07-13T14:16:02;29.60;99.90
24085;DHT22;12268;52.110;5.548;2023-07-13T14:18:27;29.40;99.80
24085;DHT22;12268;52.110;5.548;2023-07-13T14:20:53;28.80;99.90
24085;DHT22;12268;52.110;5.548;2023-07-13T14:23:19;28.70;99.90
24085;DHT22;12268;52.110;5.548;2023-07-13T14:25:46;28.50;99.90
24085;DHT22;12268;52.110;5.548;2023-07-13T14:28:24;28.10;99.90
24085;DHT22;12268;52.110;5.548;2023-07-13T14:30:51;27.60;99.90
24085;DHT22;12268;52.110;5.548;2023-07-13T14:33:17;27.50;99.90
24085;DHT22;12268;52.110;5.548;2023-07-13T14:35:43;27.60;99.90
24085;DHT22;12268;52.110;5.548;2023-07-13T14:38:16;27.70;99.90
24085;DHT22;12268;52.110;5.548;2023-07-13T14:40:43;27.70;99.90
24085;DHT22;12268;52.110;5.548;2023-07-13T14:43:16;27.30;99.90
24085;DHT22;12268;52.110;5.548;2023-07-13T14:45:48;27.20;99.90
24085;DHT22;12268;52.110;5.548;2023-07-13T14:48:22;27.00;99.90
24085;DHT22;12268;52.110;5.548;2023-07-13T14:50:56;27.10;99.90
24085;DHT22;12268;52.110;5.548;2023-07-13T14:53:24;27.40;99.90
24085;DHT22;12268;52.110;5.548;2023-07-13T14:55:50;27.80;99.90
24085;DHT22;12268;52.110;5.548;2023-07-13T14:58:16;27.40;99.90
24085;DHT22;12268;52.110;5.548;2023-07-13T15:00:41;27.60;99.90
24085;DHT22;12268;52.110;5.548;2023-07-13T15:03:19;27.90;99.90
24085;DHT22;12268;52.110;5.548;2023-07-13T15:05:50;28.00;99.90
24085;DHT22;12268;52.110;5.548;2023-07-13T15:08:16;28.50;99.90
24085;DHT22;12268;52.110;5.548;2023-07-13T15:10:42;28.90;99.90
24085;DHT22;12268;52.110;5.548;2023-07-13T15:13:21;29.30;99.90
24085;DHT22;12268;52.110;5.548;2023-07-13T15:15:51;29.30;99.90
24085;DHT22;12268;52.110;5.548;2023-07-13T15:18:21;29.00;99.90
24085;DHT22;12268;52.110;5.548;2023-07-13T15:20:48;29.30;99.90
24085;DHT22;12268;52.110;5.548;2023-07-13T15:23:15;29.40;99.90
24085;DHT22;12268;52.110;5.548;2023-07-13T15:25:42;28.60;99.90
24085;DHT22;12268;52.110;5.548;2023-07-13T15:28:09;28.70;99.90
24085;DHT22;12268;52.110;5.548;2023-07-13T15:30:44;29.10;99.90
24085;DHT22;12268;52.110;5.548;2023-07-13T15:33:16;28.80;99.90
24085;DHT22;12268;52.110;5.548;2023-07-13T15:35:45;29.00;99.90
24085;DHT22;12268;52.110;5.548;2023-07-13T15:38:25;29.00;99.90
24085;DHT22;12268;52.110;5.548;2023-07-13T15:40:52;29.20;99.90
24085;DHT22;12268;52.110;5.548;2023-07-13T15:43:18;29.00;99.90
24085;DHT22;12268;52.110;5.548;2023-07-13T15:45:45;29.10;99.90
24085;DHT22;12268;52.110;5.548;2023-07-13T15:48:13;29.20;99.90
24085;DHT22;12268;52.110;5.548;2023-07-13T15:50:50;28.90;99.90
24085;DHT22;12268;52.110;5.548;2023-07-13T15:53:23;28.80;99.90
24085;DHT22;12268;52.110;5.548;2023-07-13T15:55:50;28.90;99.90
24085;DHT22;12268;52.110;5.548;2023-07-13T15:58:17;28.60;99.90
24085;DHT22;12268;52.110;5.548;2023-07-13T16:00:44;28.40;99.90
24085;DHT22;12268;52.110;5.548;2023-07-13T16:03:10;28.30;99.90
24085;DHT22;12268;52.110;5.548;2023-07-13T16:05:37;28.10;99.90
24085;DHT22;12268;52.110;5.548;2023-07-13T16:08:13;28.50;99.90
24085;DHT22;12268;52.110;5.548;2023-07-13T16:10:41;28.50;99.90
24085;DHT22;12268;52.110;5.548;2023-07-13T16:13:15;28.10;99.90
24085;DHT22;12268;52.110;5.548;2023-07-13T16:15:42;28.20;99.90
24085;DHT22;12268;52.110;5.548;2023-07-13T16:18:12;28.40;99.90
24085;DHT22;12268;52.110;5.548;2023-07-13T16:20:39;28.20;99.90
24085;DHT22;12268;52.110;5.548;2023-07-13T16:23:05;28.00;99.90
24085;DHT22;12268;52.110;5.548;2023-07-13T16:25:31;27.80;99.90
24085;DHT22;12268;52.110;5.548;2023-07-13T16:27:58;27.10;99.90